sensor_id;sensor_type;location;lat;lon;timestamp;P1;durP1;ratioP1;P2;durP2;ratioP2
3757;SDS011;1894;51.038;13.692;2023-06-10T00:02:06;11.60;;;10.40;;
3757;SDS011;1894;51.038;13.692;2023-06-10T00:04:34;20.03;;;15.20;;
3757;SDS011;1894;51.038;13.692;2023-06-10T00:07:04;12.90;;;11.70;;
3757;SDS011;1894;51.038;13.692;2023-06-10T00:09:35;15.13;;;13.37;;
3757;SDS011;1894;51.038;13.692;2023-06-10T00:12:07;14.50;;;12.67;;
3757;SDS011;1894;51.038;13.692;2023-06-10T00:14:40;18.80;;;15.27;;
3757;SDS011;1894;51.038;13.692;2023-06-10T00:17:07;16.70;;;14.73;;
3757;SDS011;1894;51.038;13.692;2023-06-10T00:19:38;14.03;;;10.73;;
3757;SDS011;1894;51.038;13.692;2023-06-10T00:22:08;14.10;;;12.67;;
3757;SDS011;1894;51.038;13.692;2023-06-10T00:24:41;15.60;;;12.77;;
3757;SDS011;1894;51.038;13.692;2023-06-10T00:27:08;15.90;;;13.17;;
3757;SDS011;1894;51.038;13.692;2023-06-10T00:29:36;16.80;;;12.37;;
3757;SDS011;1894;51.038;13.692;2023-06-10T00:32:03;13.40;;;12.10;;
3757;SDS011;1894;51.038;13.692;2023-06-10T00:34:32;14.00;;;12.47;;
3757;SDS011;1894;51.038;13.692;2023-06-10T00:36:59;14.33;;;12.27;;
3757;SDS011;1894;51.038;13.692;2023-06-10T00:39:29;16.60;;;12.27;;
3757;SDS011;1894;51.038;13.692;2023-06-10T00:41:56;15.80;;;12.43;;
3757;SDS011;1894;51.038;13.692;2023-06-10T00:44:25;14.90;;;13.40;;
3757;SDS011;1894;51.038;13.692;2023-06-10T00:46:52;14.13;;;12.60;;
3757;SDS011;1894;51.038;13.692;2023-06-10T00:49:22;13.70;;;11.80;;
3757;SDS011;1894;51.038;13.692;2023-06-10T00:51:49;14.77;;;12.40;;
3757;SDS011;1894;51.038;13.692;2023-06-10T00:54:18;17.73;;;13.50;;
3757;SDS011;1894;51.038;13.692;2023-06-10T00:56:46;14.53;;;13.23;;
3757;SDS011;1894;51.038;13.692;2023-06-10T00:59:15;14.93;;;13.40;;
3757;SDS011;1894;51.038;13.692;2023-06-10T01:01:42;14.30;;;12.90;;
3757;SDS011;1894;51.038;13.692;2023-06-10T01:04:10;14.87;;;13.53;;
3757;SDS011;1894;51.038;13.692;2023-06-10T01:06:41;14.00;;;12.70;;
3757;SDS011;1894;51.038;13.692;2023-06-10T01:09:21;12.83;;;11.60;;
3757;SDS011;1894;51.038;13.692;2023-06-10T01:12:08;16.10;;;14.43;;
3757;SDS011;1894;51.038;13.692;2023-06-10T01:14:43;15.27;;;13.77;;
3757;SDS011;1894;51.038;13.692;2023-06-10T01:17:11;14.80;;;13.30;;
3757;SDS011;1894;51.038;13.692;2023-06-10T01:19:44;15.43;;;13.87;;
3757;SDS011;1894;51.038;13.692;2023-06-10T01:22:11;19.10;;;12.27;;
3757;SDS011;1894;51.038;13.692;2023-06-10T01:24:43;14.97;;;13.57;;
3757;SDS011;1894;51.038;13.692;2023-06-10T01:27:13;12.97;;;11.50;;
3757;SDS011;1894;51.038;13.692;2023-06-10T01:29:44;15.17;;;13.60;;
3757;SDS011;1894;51.038;13.692;2023-06-10T01:32:33;14.37;;;13.07;;
3757;SDS011;1894;51.038;13.692;2023-06-10T01:35:05;16.03;;;14.53;;
3757;SDS011;1894;51.038;13.692;2023-06-10T01:37:36;15.60;;;14.03;;
3757;SDS011;1894;51.038;13.692;2023-06-10T01:40:06;17.83;;;15.97;;
3757;SDS011;1894;51.038;13.692;2023-06-10T01:42:34;15.50;;;14.00;;
3757;SDS011;1894;51.038;13.692;2023-06-10T01:45:02;17.57;;;15.80;;
3757;SDS011;1894;51.038;13.692;2023-06-10T01:47:29;17.60;;;14.90;;
3757;SDS011;1894;51.038;13.692;2023-06-10T01:49:58;16.77;;;14.97;;
3757;SDS011;1894;51.038;13.692;2023-06-10T01:52:26;16.17;;;14.57;;
3757;SDS011;1894;51.038;13.692;2023-06-10T01:54:54;16.80;;;14.67;;
3757;SDS011;1894;51.038;13.692;2023-06-10T01:57:21;17.27;;;14.60;;
3757;SDS011;1894;51.038;13.692;2023-06-10T01:59:49;18.73;;;15.30;;
3757;SDS011;1894;51.038;13.692;2023-06-10T02:02:16;15.47;;;13.80;;
3757;SDS011;1894;51.038;13.692;2023-06-10T02:04:43;16.10;;;14.50;;
3757;SDS011;1894;51.038;13.692;2023-06-10T02:07:10;15.57;;;14.13;;
3757;SDS011;1894;51.038;13.692;2023-06-10T02:09:38;14.77;;;13.10;;
3757;SDS011;1894;51.038;13.692;2023-06-10T02:12:06;17.73;;;15.90;;
3757;SDS011;1894;51.038;13.692;2023-06-10T02:14:33;17.57;;;14.97;;
3757;SDS011;1894;51.038;13.692;2023-06-10T02:17:00;15.43;;;14.03;;
3757;SDS011;1894;51.038;13.692;2023-06-10T02:19:27;15.80;;;14.20;;
3757;SDS011;1894;51.038;13.692;2023-06-10T02:21:55;15.27;;;13.90;;
3757;SDS011;1894;51.038;13.692;2023-06-10T02:24:22;14.80;;;13.30;;
3757;SDS011;1894;51.038;13.692;2023-06-10T02:26:49;15.30;;;13.80;;
3757;SDS011;1894;51.038;13.692;2023-06-10T02:29:18;20.57;;;13.70;;
3757;SDS011;1894;51.038;13.692;2023-06-10T02:31:46;15.40;;;13.90;;
3757;SDS011;1894;51.038;13.692;2023-06-10T02:34:14;15.13;;;13.73;;
3757;SDS011;1894;51.038;13.692;2023-06-10T02:36:42;13.70;;;12.30;;
3757;SDS011;1894;51.038;13.692;2023-06-10T02:39:09;14.17;;;12.77;;
3757;SDS011;1894;51.038;13.692;2023-06-10T02:41:36;14.93;;;13.53;;
3757;SDS011;1894;51.038;13.692;2023-06-10T02:44:05;20.73;;;14.53;;
3757;SDS011;1894;51.038;13.692;2023-06-10T02:46:32;14.70;;;13.33;;
3757;SDS011;1894;51.038;13.692;2023-06-10T02:48:59;16.00;;;14.37;;
3757;SDS011;1894;51.038;13.692;2023-06-10T02:51:28;14.20;;;12.90;;
3757;SDS011;1894;51.038;13.692;2023-06-10T02:53:59;17.10;;;14.40;;
3757;SDS011;1894;51.038;13.692;2023-06-10T02:56:26;13.70;;;12.37;;
3757;SDS011;1894;51.038;13.692;2023-06-10T02:58:56;14.87;;;13.37;;
3757;SDS011;1894;51.038;13.692;2023-06-10T03:01:25;16.30;;;13.67;;
3757;SDS011;1894;51.038;13.692;2023-06-10T03:04:00;15.10;;;13.80;;
3757;SDS011;1894;51.038;13.692;2023-06-10T03:06:27;13.60;;;12.30;;
3757;SDS011;1894;51.038;13.692;2023-06-10T03:09:04;17.90;;;13.60;;
3757;SDS011;1894;51.038;13.692;2023-06-10T03:11:35;14.83;;;13.23;;
3757;SDS011;1894;51.038;13.692;2023-06-10T03:14:06;19.50;;;13.70;;
3757;SDS011;1894;51.038;13.692;2023-06-10T03:16:33;18.03;;;14.37;;
3757;SDS011;1894;51.038;13.692;2023-06-10T03:19:10;14.40;;;12.90;;
3757;SDS011;1894;51.038;13.692;2023-06-10T03:21:43;14.90;;;13.40;;
3757;SDS011;1894;51.038;13.692;2023-06-10T03:24:12;17.87;;;14.30;;
3757;SDS011;1894;51.038;13.692;2023-06-10T03:26:40;15.80;;;14.30;;
3757;SDS011;1894;51.038;13.692;2023-06-10T03:29:07;18.50;;;14.50;;
3757;SDS011;1894;51.038;13.692;2023-06-10T03:31:34;18.90;;;16.20;;
3757;SDS011;1894;51.038;13.692;2023-06-10T03:34:05;20.27;;;17.40;;
3757;SDS011;1894;51.038;13.692;2023-06-10T03:36:32;25.17;;;18.20;;
3757;SDS011;1894;51.038;13.692;2023-06-10T03:39:00;18.77;;;16.70;;
3757;SDS011;1894;51.038;13.692;2023-06-10T03:41:27;21.60;;;18.87;;
3757;SDS011;1894;51.038;13.692;2023-06-10T03:43:55;18.70;;;16.80;;
3757;SDS011;1894;51.038;13.692;2023-06-10T03:46:22;22.80;;;18.30;;
3757;SDS011;1894;51.038;13.692;2023-06-10T03:48:50;20.83;;;18.50;;
3757;SDS011;1894;51.038;13.692;2023-06-10T03:51:18;25.23;;;16.90;;
3757;SDS011;1894;51.038;13.692;2023-06-10T03:53:45;20.13;;;15.60;;
3757;SDS011;1894;51.038;13.692;2023-06-10T03:56:12;31.27;;;15.80;;
3757;SDS011;1894;51.038;13.692;2023-06-10T03:58:39;19.13;;;16.37;;
3757;SDS011;1894;51.038;13.692;2023-06-10T04:01:09;19.57;;;15.90;;
3757;SDS011;1894;51.038;13.692;2023-06-10T04:03:37;19.20;;;15.40;;
3757;SDS011;1894;51.038;13.692;2023-06-10T04:06:05;17.53;;;15.73;;
3757;SDS011;1894;51.038;13.692;2023-06-10T04:08:32;24.80;;;16.50;;
3757;SDS011;1894;51.038;13.692;2023-06-10T04:11:00;20.43;;;15.43;;
3757;SDS011;1894;51.038;13.692;2023-06-10T04:13:26;19.77;;;17.87;;
3757;SDS011;1894;51.038;13.692;2023-06-10T04:15:57;23.10;;;16.57;;
3757;SDS011;1894;51.038;13.692;2023-06-10T04:18:24;21.57;;;16.50;;
3757;SDS011;1894;51.038;13.692;2023-06-10T04:20:54;27.37;;;16.57;;
3757;SDS011;1894;51.038;13.692;2023-06-10T04:23:22;18.33;;;16.40;;
3757;SDS011;1894;51.038;13.692;2023-06-10T04:25:49;17.80;;;16.00;;
3757;SDS011;1894;51.038;13.692;2023-06-10T04:28:17;17.70;;;15.50;;
3757;SDS011;1894;51.038;13.692;2023-06-10T04:30:45;17.20;;;14.50;;
3757;SDS011;1894;51.038;13.692;2023-06-10T04:33:12;15.97;;;14.37;;
3757;SDS011;1894;51.038;13.692;2023-06-10T04:35:40;19.50;;;14.10;;
3757;SDS011;1894;51.038;13.692;2023-06-10T04:38:10;15.53;;;13.93;;
3757;SDS011;1894;51.038;13.692;2023-06-10T04:40:38;17.10;;;14.50;;
3757;SDS011;1894;51.038;13.692;2023-06-10T04:43:06;14.00;;;12.60;;
3757;SDS011;1894;51.038;13.692;2023-06-10T04:45:34;16.87;;;15.07;;
3757;SDS011;1894;51.038;13.692;2023-06-10T04:48:01;16.20;;;13.70;;
3757;SDS011;1894;51.038;13.692;2023-06-10T04:50:28;17.00;;;13.93;;
3757;SDS011;1894;51.038;13.692;2023-06-10T04:52:55;14.33;;;12.80;;
3757;SDS011;1894;51.038;13.692;2023-06-10T04:55:24;20.23;;;13.90;;
3757;SDS011;1894;51.038;13.692;2023-06-10T04:57:51;15.30;;;12.80;;
3757;SDS011;1894;51.038;13.692;2023-06-10T05:00:19;16.00;;;13.90;;
3757;SDS011;1894;51.038;13.692;2023-06-10T05:02:46;18.07;;;13.63;;
3757;SDS011;1894;51.038;13.692;2023-06-10T05:05:16;13.47;;;11.83;;
3757;SDS011;1894;51.038;13.692;2023-06-10T05:07:44;13.00;;;11.70;;
3757;SDS011;1894;51.038;13.692;2023-06-10T05:10:11;17.90;;;12.30;;
3757;SDS011;1894;51.038;13.692;2023-06-10T05:12:38;18.10;;;12.33;;
3757;SDS011;1894;51.038;13.692;2023-06-10T05:15:07;13.17;;;11.60;;
3757;SDS011;1894;51.038;13.692;2023-06-10T05:17:35;19.33;;;12.37;;
3757;SDS011;1894;51.038;13.692;2023-06-10T05:20:02;12.73;;;11.10;;
3757;SDS011;1894;51.038;13.692;2023-06-10T05:22:30;17.03;;;12.40;;
3757;SDS011;1894;51.038;13.692;2023-06-10T05:24:57;12.03;;;10.77;;
3757;SDS011;1894;51.038;13.692;2023-06-10T05:27:24;13.43;;;12.07;;
3757;SDS011;1894;51.038;13.692;2023-06-10T05:29:52;11.20;;;10.10;;
3757;SDS011;1894;51.038;13.692;2023-06-10T05:32:19;17.00;;;11.87;;
3757;SDS011;1894;51.038;13.692;2023-06-10T05:34:46;13.13;;;11.03;;
3757;SDS011;1894;51.038;13.692;2023-06-10T05:37:13;10.70;;;9.43;;
3757;SDS011;1894;51.038;13.692;2023-06-10T05:39:41;13.13;;;11.90;;
3757;SDS011;1894;51.038;13.692;2023-06-10T05:42:08;12.33;;;11.03;;
3757;SDS011;1894;51.038;13.692;2023-06-10T05:44:35;12.90;;;11.57;;
3757;SDS011;1894;51.038;13.692;2023-06-10T05:47:02;10.80;;;9.57;;
3757;SDS011;1894;51.038;13.692;2023-06-10T05:49:29;11.30;;;10.20;;
3757;SDS011;1894;51.038;13.692;2023-06-10T05:51:56;11.87;;;10.67;;
3757;SDS011;1894;51.038;13.692;2023-06-10T05:54:25;12.10;;;10.90;;
3757;SDS011;1894;51.038;13.692;2023-06-10T05:56:55;11.97;;;10.03;;
3757;SDS011;1894;51.038;13.692;2023-06-10T05:59:22;19.90;;;9.97;;
3757;SDS011;1894;51.038;13.692;2023-06-10T06:01:50;12.40;;;10.27;;
3757;SDS011;1894;51.038;13.692;2023-06-10T06:04:17;11.10;;;9.03;;
3757;SDS011;1894;51.038;13.692;2023-06-10T06:06:44;10.50;;;9.40;;
3757;SDS011;1894;51.038;13.692;2023-06-10T06:09:11;12.60;;;9.67;;
3757;SDS011;1894;51.038;13.692;2023-06-10T06:11:39;16.63;;;10.20;;
3757;SDS011;1894;51.038;13.692;2023-06-10T06:14:06;11.07;;;9.63;;
3757;SDS011;1894;51.038;13.692;2023-06-10T06:16:33;16.90;;;9.90;;
3757;SDS011;1894;51.038;13.692;2023-06-10T06:19:00;9.87;;;8.60;;
3757;SDS011;1894;51.038;13.692;2023-06-10T06:21:27;13.30;;;9.80;;
3757;SDS011;1894;51.038;13.692;2023-06-10T06:23:54;10.63;;;9.13;;
3757;SDS011;1894;51.038;13.692;2023-06-10T06:26:22;9.00;;;8.03;;
3757;SDS011;1894;51.038;13.692;2023-06-10T06:28:49;9.67;;;8.60;;
3757;SDS011;1894;51.038;13.692;2023-06-10T06:31:16;10.40;;;8.53;;
3757;SDS011;1894;51.038;13.692;2023-06-10T06:33:43;11.57;;;8.37;;
3757;SDS011;1894;51.038;13.692;2023-06-10T06:36:10;10.03;;;9.03;;
3757;SDS011;1894;51.038;13.692;2023-06-10T06:38:37;9.07;;;8.27;;
3757;SDS011;1894;51.038;13.692;2023-06-10T06:41:04;9.33;;;8.10;;
3757;SDS011;1894;51.038;13.692;2023-06-10T06:43:33;8.63;;;7.80;;
3757;SDS011;1894;51.038;13.692;2023-06-10T06:46:27;8.67;;;7.83;;
3757;SDS011;1894;51.038;13.692;2023-06-10T06:48:54;9.33;;;7.93;;
3757;SDS011;1894;51.038;13.692;2023-06-10T06:51:22;10.93;;;8.07;;
3757;SDS011;1894;51.038;13.692;2023-06-10T06:53:49;10.63;;;8.40;;
3757;SDS011;1894;51.038;13.692;2023-06-10T06:56:17;9.10;;;8.30;;
3757;SDS011;1894;51.038;13.692;2023-06-10T06:58:44;11.83;;;9.87;;
3757;SDS011;1894;51.038;13.692;2023-06-10T07:01:11;8.70;;;7.90;;
3757;SDS011;1894;51.038;13.692;2023-06-10T07:03:38;8.87;;;7.63;;
3757;SDS011;1894;51.038;13.692;2023-06-10T07:06:05;9.90;;;9.10;;
3757;SDS011;1894;51.038;13.692;2023-06-10T07:08:32;7.80;;;7.10;;
3757;SDS011;1894;51.038;13.692;2023-06-10T07:10:59;9.63;;;7.40;;
3757;SDS011;1894;51.038;13.692;2023-06-10T07:13:27;11.13;;;8.27;;
3757;SDS011;1894;51.038;13.692;2023-06-10T07:15:54;11.43;;;7.50;;
3757;SDS011;1894;51.038;13.692;2023-06-10T07:18:21;8.27;;;7.43;;
3757;SDS011;1894;51.038;13.692;2023-06-10T07:20:48;11.23;;;10.03;;
3757;SDS011;1894;51.038;13.692;2023-06-10T07:23:16;11.50;;;8.90;;
3757;SDS011;1894;51.038;13.692;2023-06-10T07:25:43;8.17;;;7.37;;
3757;SDS011;1894;51.038;13.692;2023-06-10T07:28:10;7.30;;;6.60;;
3757;SDS011;1894;51.038;13.692;2023-06-10T07:30:37;7.30;;;6.57;;
3757;SDS011;1894;51.038;13.692;2023-06-10T07:33:04;7.20;;;6.50;;
3757;SDS011;1894;51.038;13.692;2023-06-10T07:35:34;7.20;;;6.47;;
3757;SDS011;1894;51.038;13.692;2023-06-10T07:38:01;11.73;;;7.80;;
3757;SDS011;1894;51.038;13.692;2023-06-10T07:40:28;7.90;;;7.20;;
3757;SDS011;1894;51.038;13.692;2023-06-10T07:42:56;7.90;;;7.10;;
3757;SDS011;1894;51.038;13.692;2023-06-10T07:45:24;8.17;;;6.93;;
3757;SDS011;1894;51.038;13.692;2023-06-10T07:47:51;11.60;;;7.20;;
3757;SDS011;1894;51.038;13.692;2023-06-10T07:50:19;8.37;;;6.83;;
3757;SDS011;1894;51.038;13.692;2023-06-10T07:52:46;7.13;;;6.43;;
3757;SDS011;1894;51.038;13.692;2023-06-10T07:55:13;8.20;;;7.37;;
3757;SDS011;1894;51.038;13.692;2023-06-10T07:57:40;6.90;;;6.30;;
3757;SDS011;1894;51.038;13.692;2023-06-10T08:00:07;6.63;;;5.50;;
3757;SDS011;1894;51.038;13.692;2023-06-10T08:02:38;8.90;;;6.50;;
3757;SDS011;1894;51.038;13.692;2023-06-10T08:05:06;7.00;;;6.50;;
3757;SDS011;1894;51.038;13.692;2023-06-10T08:07:34;11.73;;;8.00;;
3757;SDS011;1894;51.038;13.692;2023-06-10T08:10:01;8.30;;;7.60;;
3757;SDS011;1894;51.038;13.692;2023-06-10T08:12:28;8.33;;;6.73;;
3757;SDS011;1894;51.038;13.692;2023-06-10T08:14:55;8.33;;;7.43;;
3757;SDS011;1894;51.038;13.692;2023-06-10T08:17:23;8.20;;;6.27;;
3757;SDS011;1894;51.038;13.692;2023-06-10T08:19:50;9.07;;;6.67;;
3757;SDS011;1894;51.038;13.692;2023-06-10T08:22:17;11.90;;;6.47;;
3757;SDS011;1894;51.038;13.692;2023-06-10T08:24:44;6.83;;;6.23;;
3757;SDS011;1894;51.038;13.692;2023-06-10T08:27:14;7.30;;;6.60;;
3757;SDS011;1894;51.038;13.692;2023-06-10T08:29:41;8.03;;;7.30;;
3757;SDS011;1894;51.038;13.692;2023-06-10T08:32:08;6.93;;;6.20;;
3757;SDS011;1894;51.038;13.692;2023-06-10T08:34:36;7.43;;;6.70;;
3757;SDS011;1894;51.038;13.692;2023-06-10T08:37:03;7.27;;;6.57;;
3757;SDS011;1894;51.038;13.692;2023-06-10T08:39:31;7.57;;;6.87;;
3757;SDS011;1894;51.038;13.692;2023-06-10T08:45:00;6.83;;;5.93;;
3757;SDS011;1894;51.038;13.692;2023-06-10T08:47:29;7.00;;;5.87;;
3757;SDS011;1894;51.038;13.692;2023-06-10T08:50:02;6.30;;;5.63;;
3757;SDS011;1894;51.038;13.692;2023-06-10T08:52:37;6.90;;;6.10;;
3757;SDS011;1894;51.038;13.692;2023-06-10T08:55:10;7.60;;;6.33;;
3757;SDS011;1894;51.038;13.692;2023-06-10T08:57:44;6.77;;;5.93;;
3757;SDS011;1894;51.038;13.692;2023-06-10T09:00:12;6.80;;;6.20;;
3757;SDS011;1894;51.038;13.692;2023-06-10T09:02:40;6.37;;;5.73;;
3757;SDS011;1894;51.038;13.692;2023-06-10T09:05:07;7.20;;;6.70;;
3757;SDS011;1894;51.038;13.692;2023-06-10T09:07:36;8.50;;;6.93;;
3757;SDS011;1894;51.038;13.692;2023-06-10T09:10:04;7.53;;;5.93;;
3757;SDS011;1894;51.038;13.692;2023-06-10T09:12:34;8.30;;;5.97;;
3757;SDS011;1894;51.038;13.692;2023-06-10T09:15:02;10.70;;;6.40;;
3757;SDS011;1894;51.038;13.692;2023-06-10T09:17:29;8.40;;;6.90;;
3757;SDS011;1894;51.038;13.692;2023-06-10T09:19:56;8.43;;;6.00;;
3757;SDS011;1894;51.038;13.692;2023-06-10T09:22:24;8.30;;;5.80;;
3757;SDS011;1894;51.038;13.692;2023-06-10T09:25:03;8.40;;;6.23;;
3757;SDS011;1894;51.038;13.692;2023-06-10T09:27:32;6.07;;;5.50;;
3757;SDS011;1894;51.038;13.692;2023-06-10T09:30:30;6.47;;;5.90;;
3757;SDS011;1894;51.038;13.692;2023-06-10T09:33:03;8.13;;;7.10;;
3757;SDS011;1894;51.038;13.692;2023-06-10T09:35:44;5.63;;;5.07;;
3757;SDS011;1894;51.038;13.692;2023-06-10T09:38:19;6.97;;;6.30;;
3757;SDS011;1894;51.038;13.692;2023-06-10T09:40:49;6.07;;;5.53;;
3757;SDS011;1894;51.038;13.692;2023-06-10T09:43:20;6.57;;;5.83;;
3757;SDS011;1894;51.038;13.692;2023-06-10T09:46:17;8.83;;;7.10;;
3757;SDS011;1894;51.038;13.692;2023-06-10T09:48:46;6.63;;;6.03;;
3757;SDS011;1894;51.038;13.692;2023-06-10T09:51:14;11.33;;;6.03;;
3757;SDS011;1894;51.038;13.692;2023-06-10T09:53:48;5.87;;;5.33;;
3757;SDS011;1894;51.038;13.692;2023-06-10T09:56:17;6.30;;;5.80;;
3757;SDS011;1894;51.038;13.692;2023-06-10T09:58:45;9.13;;;6.03;;
3757;SDS011;1894;51.038;13.692;2023-06-10T10:01:14;5.40;;;5.00;;
3757;SDS011;1894;51.038;13.692;2023-06-10T10:03:51;5.50;;;5.00;;
3757;SDS011;1894;51.038;13.692;2023-06-10T10:06:19;8.77;;;6.30;;
3757;SDS011;1894;51.038;13.692;2023-06-10T10:08:50;8.70;;;5.90;;
3757;SDS011;1894;51.038;13.692;2023-06-10T10:11:19;5.87;;;5.37;;
3757;SDS011;1894;51.038;13.692;2023-06-10T10:13:50;11.17;;;5.43;;
3757;SDS011;1894;51.038;13.692;2023-06-10T10:16:20;9.87;;;5.60;;
3757;SDS011;1894;51.038;13.692;2023-06-10T10:18:54;6.00;;;5.40;;
3757;SDS011;1894;51.038;13.692;2023-06-10T10:21:23;5.00;;;4.60;;
3757;SDS011;1894;51.038;13.692;2023-06-10T10:23:56;7.10;;;5.20;;
3757;SDS011;1894;51.038;13.692;2023-06-10T10:26:36;6.70;;;5.37;;
3757;SDS011;1894;51.038;13.692;2023-06-10T10:29:11;5.17;;;4.77;;
3757;SDS011;1894;51.038;13.692;2023-06-10T10:31:59;6.73;;;5.00;;
3757;SDS011;1894;51.038;13.692;2023-06-10T10:34:37;7.03;;;5.50;;
3757;SDS011;1894;51.038;13.692;2023-06-10T10:37:28;6.47;;;5.53;;
3757;SDS011;1894;51.038;13.692;2023-06-10T10:40:17;6.03;;;5.53;;
3757;SDS011;1894;51.038;13.692;2023-06-10T10:43:17;6.73;;;6.03;;
3757;SDS011;1894;51.038;13.692;2023-06-10T10:45:57;7.10;;;6.40;;
3757;SDS011;1894;51.038;13.692;2023-06-10T10:48:26;7.77;;;6.70;;
3757;SDS011;1894;51.038;13.692;2023-06-10T10:51:00;7.13;;;6.10;;
3757;SDS011;1894;51.038;13.692;2023-06-10T10:53:31;10.40;;;5.90;;
3757;SDS011;1894;51.038;13.692;2023-06-10T10:56:06;5.43;;;4.90;;
3757;SDS011;1894;51.038;13.692;2023-06-10T10:58:37;5.57;;;5.07;;
3757;SDS011;1894;51.038;13.692;2023-06-10T11:01:13;8.20;;;4.97;;
3757;SDS011;1894;51.038;13.692;2023-06-10T11:03:42;6.10;;;5.60;;
3757;SDS011;1894;51.038;13.692;2023-06-10T11:06:17;8.00;;;7.30;;
3757;SDS011;1894;51.038;13.692;2023-06-10T11:08:45;6.37;;;4.80;;
3757;SDS011;1894;51.038;13.692;2023-06-10T11:11:20;5.47;;;5.07;;
3757;SDS011;1894;51.038;13.692;2023-06-10T11:16:31;5.70;;;4.23;;
3757;SDS011;1894;51.038;13.692;2023-06-10T11:19:09;8.03;;;4.70;;
3757;SDS011;1894;51.038;13.692;2023-06-10T11:21:57;7.43;;;4.63;;
3757;SDS011;1894;51.038;13.692;2023-06-10T11:24:25;5.53;;;4.30;;
3757;SDS011;1894;51.038;13.692;2023-06-10T11:26:53;8.43;;;5.00;;
3757;SDS011;1894;51.038;13.692;2023-06-10T11:29:20;7.23;;;4.70;;
3757;SDS011;1894;51.038;13.692;2023-06-10T11:31:51;8.27;;;5.97;;
3757;SDS011;1894;51.038;13.692;2023-06-10T11:34:21;8.37;;;5.37;;
3757;SDS011;1894;51.038;13.692;2023-06-10T11:36:51;5.50;;;4.77;;
3757;SDS011;1894;51.038;13.692;2023-06-10T11:39:19;6.23;;;5.67;;
3757;SDS011;1894;51.038;13.692;2023-06-10T11:41:47;5.70;;;5.07;;
3757;SDS011;1894;51.038;13.692;2023-06-10T11:44:16;8.40;;;5.63;;
3757;SDS011;1894;51.038;13.692;2023-06-10T11:46:47;5.23;;;4.73;;
3757;SDS011;1894;51.038;13.692;2023-06-10T11:49:15;5.27;;;4.77;;
3757;SDS011;1894;51.038;13.692;2023-06-10T11:51:43;6.33;;;5.70;;
3757;SDS011;1894;51.038;13.692;2023-06-10T11:54:18;7.73;;;5.47;;
3757;SDS011;1894;51.038;13.692;2023-06-10T11:56:45;5.03;;;4.63;;
3757;SDS011;1894;51.038;13.692;2023-06-10T11:59:13;6.80;;;5.23;;
3757;SDS011;1894;51.038;13.692;2023-06-10T12:01:44;7.20;;;4.93;;
3757;SDS011;1894;51.038;13.692;2023-06-10T12:04:13;6.80;;;5.30;;
3757;SDS011;1894;51.038;13.692;2023-06-10T12:06:52;5.50;;;4.67;;
3757;SDS011;1894;51.038;13.692;2023-06-10T12:09:24;7.60;;;4.37;;
3757;SDS011;1894;51.038;13.692;2023-06-10T12:12:00;5.43;;;4.37;;
3757;SDS011;1894;51.038;13.692;2023-06-10T12:20:00;5.10;;;3.50;;
3757;SDS011;1894;51.038;13.692;2023-06-10T12:22:35;7.93;;;3.73;;
3757;SDS011;1894;51.038;13.692;2023-06-10T12:25:10;4.70;;;3.47;;
3757;SDS011;1894;51.038;13.692;2023-06-10T12:27:39;3.27;;;3.07;;
3757;SDS011;1894;51.038;13.692;2023-06-10T12:30:19;5.80;;;3.33;;
3757;SDS011;1894;51.038;13.692;2023-06-10T12:32:47;4.80;;;3.43;;
3757;SDS011;1894;51.038;13.692;2023-06-10T12:35:18;3.43;;;3.13;;
3757;SDS011;1894;51.038;13.692;2023-06-10T12:37:57;3.10;;;2.90;;
3757;SDS011;1894;51.038;13.692;2023-06-10T12:40:32;5.10;;;3.20;;
3757;SDS011;1894;51.038;13.692;2023-06-10T12:43:00;3.50;;;3.17;;
3757;SDS011;1894;51.038;13.692;2023-06-10T12:45:31;3.73;;;2.93;;
3757;SDS011;1894;51.038;13.692;2023-06-10T12:48:17;5.30;;;3.07;;
3757;SDS011;1894;51.038;13.692;2023-06-10T12:50:51;4.03;;;3.73;;
3757;SDS011;1894;51.038;13.692;2023-06-10T12:53:19;3.00;;;2.80;;
3757;SDS011;1894;51.038;13.692;2023-06-10T12:55:47;2.80;;;2.70;;
3757;SDS011;1894;51.038;13.692;2023-06-10T12:58:14;3.10;;;2.80;;
3757;SDS011;1894;51.038;13.692;2023-06-10T13:00:42;4.70;;;3.00;;
3757;SDS011;1894;51.038;13.692;2023-06-10T13:03:09;6.93;;;4.10;;
3757;SDS011;1894;51.038;13.692;2023-06-10T13:05:37;3.47;;;3.03;;
3757;SDS011;1894;51.038;13.692;2023-06-10T13:08:08;3.03;;;2.83;;
3757;SDS011;1894;51.038;13.692;2023-06-10T13:10:38;8.70;;;3.17;;
3757;SDS011;1894;51.038;13.692;2023-06-10T13:13:05;5.73;;;3.17;;
3757;SDS011;1894;51.038;13.692;2023-06-10T13:15:34;3.13;;;2.93;;
3757;SDS011;1894;51.038;13.692;2023-06-10T13:18:09;4.07;;;3.70;;
3757;SDS011;1894;51.038;13.692;2023-06-10T13:20:37;4.30;;;4.00;;
3757;SDS011;1894;51.038;13.692;2023-06-10T13:23:04;3.47;;;3.27;;
3757;SDS011;1894;51.038;13.692;2023-06-10T13:25:31;3.50;;;3.30;;
3757;SDS011;1894;51.038;13.692;2023-06-10T13:27:58;3.30;;;3.10;;
3757;SDS011;1894;51.038;13.692;2023-06-10T13:30:25;3.20;;;2.90;;
3757;SDS011;1894;51.038;13.692;2023-06-10T13:32:53;2.97;;;2.87;;
3757;SDS011;1894;51.038;13.692;2023-06-10T13:35:20;5.83;;;2.90;;
3757;SDS011;1894;51.038;13.692;2023-06-10T13:37:47;3.70;;;3.40;;
3757;SDS011;1894;51.038;13.692;2023-06-10T13:40:14;3.77;;;3.30;;
3757;SDS011;1894;51.038;13.692;2023-06-10T13:42:42;3.63;;;3.10;;
3757;SDS011;1894;51.038;13.692;2023-06-10T13:45:09;3.40;;;2.97;;
3757;SDS011;1894;51.038;13.692;2023-06-10T13:47:37;3.20;;;2.90;;
3757;SDS011;1894;51.038;13.692;2023-06-10T13:50:05;3.43;;;2.93;;
3757;SDS011;1894;51.038;13.692;2023-06-10T13:52:33;2.77;;;2.67;;
3757;SDS011;1894;51.038;13.692;2023-06-10T13:55:00;2.70;;;2.50;;
3757;SDS011;1894;51.038;13.692;2023-06-10T13:57:27;2.30;;;2.20;;
3757;SDS011;1894;51.038;13.692;2023-06-10T13:59:54;2.90;;;2.20;;
3757;SDS011;1894;51.038;13.692;2023-06-10T14:02:22;2.63;;;2.43;;
3757;SDS011;1894;51.038;13.692;2023-06-10T14:04:50;2.80;;;2.70;;
3757;SDS011;1894;51.038;13.692;2023-06-10T14:07:17;2.63;;;2.43;;
3757;SDS011;1894;51.038;13.692;2023-06-10T14:09:44;3.60;;;2.33;;
3757;SDS011;1894;51.038;13.692;2023-06-10T14:12:11;2.60;;;2.43;;
3757;SDS011;1894;51.038;13.692;2023-06-10T14:14:39;3.40;;;2.37;;
3757;SDS011;1894;51.038;13.692;2023-06-10T14:17:06;2.10;;;1.90;;
3757;SDS011;1894;51.038;13.692;2023-06-10T14:19:33;2.17;;;2.00;;
3757;SDS011;1894;51.038;13.692;2023-06-10T14:22:00;2.93;;;2.00;;
3757;SDS011;1894;51.038;13.692;2023-06-10T14:24:28;2.60;;;2.33;;
3757;SDS011;1894;51.038;13.692;2023-06-10T14:26:55;2.60;;;2.40;;
3757;SDS011;1894;51.038;13.692;2023-06-10T14:29:24;3.93;;;2.10;;
3757;SDS011;1894;51.038;13.692;2023-06-10T14:31:55;2.50;;;2.40;;
3757;SDS011;1894;51.038;13.692;2023-06-10T14:34:22;3.30;;;3.00;;
3757;SDS011;1894;51.038;13.692;2023-06-10T14:36:55;2.60;;;1.97;;
3757;SDS011;1894;51.038;13.692;2023-06-10T14:39:22;2.47;;;2.37;;
3757;SDS011;1894;51.038;13.692;2023-06-10T14:41:49;2.60;;;2.47;;
3757;SDS011;1894;51.038;13.692;2023-06-10T14:44:17;2.17;;;2.00;;
3757;SDS011;1894;51.038;13.692;2023-06-10T14:46:44;2.90;;;2.70;;
3757;SDS011;1894;51.038;13.692;2023-06-10T14:49:11;9.33;;;2.67;;
3757;SDS011;1894;51.038;13.692;2023-06-10T14:51:38;2.23;;;2.13;;
3757;SDS011;1894;51.038;13.692;2023-06-10T14:54:06;3.00;;;2.77;;
3757;SDS011;1894;51.038;13.692;2023-06-10T14:56:33;2.50;;;2.30;;
3757;SDS011;1894;51.038;13.692;2023-06-10T14:59:00;3.13;;;2.93;;
3757;SDS011;1894;51.038;13.692;2023-06-10T15:01:27;2.50;;;2.40;;
3757;SDS011;1894;51.038;13.692;2023-06-10T15:03:54;2.57;;;2.47;;
3757;SDS011;1894;51.038;13.692;2023-06-10T15:06:22;5.17;;;3.27;;
3757;SDS011;1894;51.038;13.692;2023-06-10T15:08:49;7.53;;;3.30;;
3757;SDS011;1894;51.038;13.692;2023-06-10T15:11:16;2.47;;;2.37;;
3757;SDS011;1894;51.038;13.692;2023-06-10T15:13:43;2.67;;;2.57;;
3757;SDS011;1894;51.038;13.692;2023-06-10T15:16:10;2.90;;;2.80;;